Time;durP1;ratioP1;P1;durP2;ratioP2;P2;SDS_P1;SDS_P2;PMS_P1;PMS_P2;Temp;Humidity;BMP_temperature;BMP_pressure;BME280_temperature;BME280_humidity;BME280_pressure;Samples;Min_cycle;Max_cycle;Signal;HPM_P1;HPM_P2
2021/07/11 00:00:42;;;;;;;1.35;0.80;;;;;;;15.65;81.95;96527.19;5059338;28;20605;-75
2021/07/11 00:03:08;;;;;;;0.82;0.80;;;;;;;15.67;82.01;96525.09;5065416;28;20496;-75
2021/07/11 00:05:34;;;;;;;0.70;0.70;;;;;;;15.71;81.92;96525.41;5071554;28;20440;-74
2021/07/11 00:08:00;;;;;;;0.77;0.77;;;;;;;15.72;81.78;96519.88;5069990;28;20055;-75
2021/07/11 00:10:26;;;;;;;0.85;0.85;;;;;;;15.75;81.89;96523.91;5072816;28;20044;-75
2021/07/11 00:12:53;;;;;;;0.98;0.70;;;;;;;15.75;81.47;96522.03;5076322;28;20044;-75
2021/07/11 00:15:22;;;;;;;1.98;0.68;;;;;;;15.71;81.42;96522.75;5073151;28;20052;-75
2021/07/11 00:17:50;;;;;;;0.85;0.85;;;;;;;15.67;81.19;96519.81;5073015;28;20056;-75
2021/07/11 00:20:17;;;;;;;0.82;0.73;;;;;;;15.65;81.37;96519.25;5073677;28;20053;-75
2021/07/11 00:22:43;;;;;;;0.93;0.68;;;;;;;15.68;81.70;96518.75;5067611;28;20361;-76
2021/07/11 00:25:13;;;;;;;0.80;0.80;;;;;;;15.74;81.81;96515.13;5066993;28;20040;-75
2021/07/11 00:27:40;;;;;;;0.70;0.70;;;;;;;15.75;81.41;96513.31;5073168;28;20040;-76
2021/07/11 00:30:07;;;;;;;0.70;0.70;;;;;;;15.79;81.39;96519.69;5065696;28;20039;-75
2021/07/11 00:32:33;;;;;;;0.65;0.65;;;;;;;15.77;81.05;96513.84;5074923;28;20070;-75
2021/07/11 00:34:59;;;;;;;1.42;0.80;;;;;;;15.78;81.22;96529.47;5074725;28;20053;-76
2021/07/11 00:37:25;;;;;;;0.70;0.70;;;;;;;15.81;81.21;96522.88;5068486;28;20060;-75
2021/07/11 00:39:52;;;;;;;1.75;0.80;;;;;;;15.74;80.58;96519.63;5071501;28;20033;-75
2021/07/11 00:42:18;;;;;;;0.73;0.73;;;;;;;15.66;80.55;96535.91;5066973;28;20039;-75
2021/07/11 00:44:44;;;;;;;1.48;0.70;;;;;;;15.59;80.82;96526.31;5073512;28;20426;-74
2021/07/11 00:47:11;;;;;;;2.40;0.80;;;;;;;15.58;80.84;96529.22;5076052;28;20389;-74
2021/07/11 00:49:42;;;;;;;0.60;0.60;;;;;;;15.62;81.12;96525.84;5070567;28;20037;-75
2021/07/11 00:52:13;;;;;;;1.63;0.80;;;;;;;15.64;81.05;96533.50;5067227;28;20033;-74
2021/07/11 00:54:39;;;;;;;0.98;0.73;;;;;;;15.59;80.80;96530.81;5073090;28;20500;-75
2021/07/11 00:57:06;;;;;;;1.00;0.88;;;;;;;15.54;80.77;96533.38;5075721;28;20043;-75
2021/07/11 00:59:34;;;;;;;0.82;0.70;;;;;;;15.51;81.06;96531.25;5062668;28;20045;-75
2021/07/11 01:02:16;;;;;;;1.02;0.90;;;;;;;15.48;81.55;96534.41;5074269;28;20044;-75
2021/07/11 01:04:47;;;;;;;0.70;0.70;;;;;;;15.46;81.08;96544.41;5072680;28;20052;-75
2021/07/11 01:07:17;;;;;;;1.40;0.88;;;;;;;15.45;81.37;96537.53;5073846;28;20035;-75
2021/07/11 01:09:44;;;;;;;0.80;0.80;;;;;;;15.47;81.43;96538.06;5073603;28;20059;-77
2021/07/11 01:12:20;;;;;;;2.90;1.00;;;;;;;15.40;81.30;96543.56;5071555;28;20039;-75
2021/07/11 01:14:49;;;;;;;1.42;0.80;;;;;;;15.29;81.40;96541.84;5072075;28;20048;-75
2021/07/11 01:17:16;;;;;;;0.82;0.80;;;;;;;15.27;81.69;96533.34;5074693;28;20067;-74
2021/07/11 01:19:48;;;;;;;1.00;0.80;;;;;;;15.23;82.45;96527.75;5067318;28;20044;-75
2021/07/11 01:22:18;;;;;;;1.10;0.70;;;;;;;15.23;82.23;96531.19;5072513;28;20052;-74
2021/07/11 01:24:50;;;;;;;1.02;0.98;;;;;;;15.27;82.87;96536.78;5072532;28;20032;-74
2021/07/11 01:27:18;;;;;;;1.58;0.73;;;;;;;15.30;82.58;96536.28;5063463;28;20032;-75
2021/07/11 01:29:46;;;;;;;0.80;0.80;;;;;;;15.33;82.64;96530.53;5060796;28;20048;-74
2021/07/11 01:32:12;;;;;;;1.20;0.90;;;;;;;15.32;82.45;96536.06;5067091;28;20032;-75
2021/07/11 01:34:39;;;;;;;0.80;0.80;;;;;;;15.34;82.52;96542.69;5068032;28;20374;-74
2021/07/11 01:37:05;;;;;;;0.98;0.90;;;;;;;15.36;82.78;96542.44;5066498;28;20055;-74
2021/07/11 01:39:32;;;;;;;0.70;0.70;;;;;;;15.36;82.70;96545.09;5073313;28;20041;-74
2021/07/11 01:41:59;;;;;;;0.77;0.77;;;;;;;15.37;82.79;96541.38;5073251;28;20382;-76
2021/07/11 01:44:28;;;;;;;2.42;0.90;;;;;;;15.38;83.06;96541.16;5062425;28;20036;-75
2021/07/11 01:46:54;;;;;;;0.90;0.90;;;;;;;15.36;82.99;96547.72;5073294;28;20477;-73
2021/07/11 01:49:21;;;;;;;0.90;0.90;;;;;;;15.32;83.16;96547.41;5073661;28;20037;-74
2021/07/11 01:51:48;;;;;;;2.63;1.10;;;;;;;15.32;83.47;96551.91;5074574;28;20049;-73
2021/07/11 01:54:15;;;;;;;1.10;1.10;;;;;;;15.30;83.80;96548.72;5073371;28;20032;-74
2021/07/11 01:56:41;;;;;;;0.90;0.90;;;;;;;15.26;83.96;96550.25;5063155;28;20442;-77
2021/07/11 01:59:10;;;;;;;1.52;1.00;;;;;;;15.26;84.57;96548.38;5067753;28;20056;-74
2021/07/11 02:01:36;;;;;;;1.00;1.00;;;;;;;15.28;84.70;96545.50;5073134;28;20037;-74
2021/07/11 02:04:02;;;;;;;0.93;0.88;;;;;;;15.27;84.67;96541.28;5072669;28;20036;-74
2021/07/11 02:06:29;;;;;;;1.30;1.30;;;;;;;15.24;84.67;96537.25;5073286;28;20374;-74
2021/07/11 02:08:55;;;;;;;0.98;0.90;;;;;;;15.20;85.14;96534.34;5069183;28;20041;-74
2021/07/11 02:11:24;;;;;;;1.38;1.00;;;;;;;15.14;85.35;96535.31;5072499;28;20048;-74
2021/07/11 02:14:01;;;;;;;1.38;1.00;;;;;;;15.12;86.91;96541.84;5073060;28;20044;-74
2021/07/11 02:16:40;;;;;;;1.00;1.00;;;;;;;15.13;87.17;96538.97;5071907;28;20048;-73
2021/07/11 02:19:07;;;;;;;2.75;1.20;;;;;;;15.17;86.56;96545.38;5066148;28;20044;-73
2021/07/11 02:21:34;;;;;;;1.17;1.02;;;;;;;15.20;86.93;96544.09;5064611;28;20387;-74
2021/07/11 02:24:03;;;;;;;2.47;1.10;;;;;;;15.25;87.00;96546.00;5069837;28;20474;-74
2021/07/11 02:26:29;;;;;;;1.30;1.20;;;;;;;15.26;87.07;96548.38;5064231;28;20055;-74
2021/07/11 02:28:57;;;;;;;1.20;1.15;;;;;;;15.26;87.30;96544.97;5071456;28;20392;-76
2021/07/11 02:31:27;;;;;;;1.42;1.30;;;;;;;15.27;87.35;96538.66;5072637;28;20461;-74
2021/07/11 02:33:54;;;;;;;1.05;1.02;;;;;;;15.26;87.33;96545.75;5071302;28;20048;-74
2021/07/11 02:36:23;;;;;;;1.23;1.13;;;;;;;15.23;87.58;96536.47;5073520;28;20028;-74
2021/07/11 02:38:52;;;;;;;1.02;1.02;;;;;;;15.21;87.56;96540.41;5065140;28;20377;-74
2021/07/11 02:41:21;;;;;;;2.00;1.20;;;;;;;15.20;87.83;96533.50;5072055;28;20048;-74
2021/07/11 02:43:49;;;;;;;2.38;1.40;;;;;;;15.14;87.73;96530.03;5071212;28;20039;-75
2021/07/11 02:46:23;;;;;;;1.30;1.20;;;;;;;15.08;88.52;96532.84;5061340;28;20051;-74
2021/07/11 02:48:50;;;;;;;2.15;0.90;;;;;;;15.06;88.53;96534.94;5069417;28;20047;-74
2021/07/11 02:51:19;;;;;;;0.85;0.85;;;;;;;15.11;89.02;96540.28;5062667;28;20051;-74
2021/07/11 02:53:47;;;;;;;1.95;1.20;;;;;;;15.13;88.97;96536.34;5070009;28;20401;-77
2021/07/11 02:56:17;;;;;;;2.63;1.20;;;;;;;15.16;89.27;96532.41;5059631;28;20056;-75
2021/07/11 02:58:46;;;;;;;0.95;0.93;;;;;;;15.12;88.73;96534.75;5069208;28;20029;-75
2021/07/11 03:01:13;;;;;;;2.28;1.00;;;;;;;15.13;89.15;96544.25;5063849;28;20392;-74
2021/07/11 03:03:41;;;;;;;2.70;1.27;;;;;;;15.13;89.09;96538.19;5067699;28;20401;-76
2021/07/11 03:06:08;;;;;;;0.90;0.90;;;;;;;15.10;89.11;96536.03;5057531;28;20380;-76
2021/07/11 03:08:34;;;;;;;1.02;1.02;;;;;;;15.08;89.47;96538.94;5069484;28;20032;-75
2021/07/11 03:11:01;;;;;;;1.10;1.10;;;;;;;15.07;89.51;96526.75;5070118;28;20055;-76
2021/07/11 03:13:29;;;;;;;3.80;1.23;;;;;;;15.09;89.71;96535.22;5066325;28;20449;-80
2021/07/11 03:15:56;;;;;;;1.42;1.20;;;;;;;15.07;89.50;96531.25;5067275;28;20036;-76
2021/07/11 03:18:22;;;;;;;1.13;1.13;;;;;;;15.03;89.48;96525.63;5068154;28;20381;-75
2021/07/11 03:20:49;;;;;;;2.85;1.23;;;;;;;15.06;89.97;96527.81;5069277;28;20041;-75
2021/07/11 03:23:16;;;;;;;1.20;1.10;;;;;;;15.09;89.99;96529.94;5063153;28;20048;-76
2021/07/11 03:25:42;;;;;;;1.00;1.00;;;;;;;15.09;89.98;96527.31;5062367;28;20053;-77
2021/07/11 03:28:08;;;;;;;1.05;1.00;;;;;;;15.10;89.92;96530.75;5062383;28;20041;-75
2021/07/11 03:30:40;;;;;;;0.90;0.90;;;;;;;15.13;89.96;96530.28;5067955;28;20037;-76
2021/07/11 03:33:08;;;;;;;1.60;1.23;;;;;;;15.11;89.83;96530.50;5062782;28;20044;-76
2021/07/11 03:35:48;;;;;;;1.92;1.15;;;;;;;15.09;90.30;96543.16;5070769;28;20036;-75
2021/07/11 03:38:19;;;;;;;2.25;0.93;;;;;;;15.10;90.01;96546.59;5073016;28;20040;-75
2021/07/11 03:40:47;;;;;;;2.30;1.00;;;;;;;15.09;89.98;96543.16;5070042;28;20060;-76
2021/07/11 03:43:15;;;;;;;1.33;1.23;;;;;;;15.10;90.06;96547.41;5071981;28;20040;-76
2021/07/11 03:45:44;;;;;;;1.92;0.93;;;;;;;15.08;89.99;96532.84;5068819;28;20048;-75
2021/07/11 03:48:15;;;;;;;2.00;1.10;;;;;;;15.07;90.30;96542.59;5074565;28;20044;-75
2021/07/11 03:50:46;;;;;;;2.45;1.42;;;;;;;15.09;90.50;96545.78;5071721;28;20047;-76
2021/07/11 03:53:17;;;;;;;4.97;1.40;;;;;;;15.08;90.18;96554.78;5075077;28;20076;-76
2021/07/11 03:55:44;;;;;;;2.05;1.25;;;;;;;15.08;90.24;96554.78;5062420;28;20044;-76
2021/07/11 03:58:12;;;;;;;1.98;1.30;;;;;;;15.08;90.27;96548.69;5070222;28;20044;-76
2021/07/11 04:00:40;;;;;;;5.63;1.52;;;;;;;15.08;90.15;96548.69;5067571;28;20045;-76
2021/07/11 04:03:07;;;;;;;1.60;0.93;;;;;;;15.07;90.11;96547.88;5076559;28;20032;-75
2021/07/11 04:05:36;;;;;;;3.33;1.30;;;;;;;15.08;90.20;96548.69;5042024;28;20420;-74
2021/07/11 04:08:07;;;;;;;2.22;1.17;;;;;;;15.08;90.37;96546.84;5068924;28;20474;-76
2021/07/11 04:10:33;;;;;;;2.40;2.15;;;;;;;15.09;90.32;96552.94;5071221;28;20044;-75
2021/07/11 04:13:00;;;;;;;1.88;1.00;;;;;;;15.11;90.20;96551.63;5076465;28;20036;-77
2021/07/11 04:15:27;;;;;;;1.73;1.27;;;;;;;15.13;90.27;96554.03;5066306;28;20465;-76
2021/07/11 04:17:58;;;;;;;1.88;1.00;;;;;;;15.13;90.12;96548.75;5076448;28;20360;-76
2021/07/11 04:20:27;;;;;;;1.30;1.20;;;;;;;15.14;90.07;96550.34;5067665;28;20361;-76
2021/07/11 04:22:56;;;;;;;0.90;0.90;;;;;;;15.12;90.26;96540.03;5070668;28;20044;-76
2021/07/11 04:25:23;;;;;;;1.50;1.20;;;;;;;15.14;89.97;96547.69;5072057;28;20041;-75
2021/07/11 04:27:53;;;;;;;4.20;1.20;;;;;;;15.12;90.05;96545.31;5070217;28;20036;-75
2021/07/11 04:30:20;;;;;;;4.32;1.27;;;;;;;15.12;90.13;96553.25;5072914;28;20036;-77
2021/07/11 04:32:47;;;;;;;2.53;1.17;;;;;;;15.08;89.90;96546.84;5074089;28;20049;-75
2021/07/11 04:35:13;;;;;;;1.42;1.13;;;;;;;15.09;90.22;96542.38;5067909;28;20045;-75
2021/07/11 04:37:39;;;;;;;2.45;1.02;;;;;;;15.09;90.17;96545.00;5073371;28;20060;-78
2021/07/11 04:40:06;;;;;;;1.23;1.23;;;;;;;15.07;89.93;96547.88;5073015;28;20222;-77
2021/07/11 04:42:32;;;;;;;2.40;1.20;;;;;;;15.07;90.05;96544.44;5071096;28;20033;-77
2021/07/11 04:45:02;;;;;;;1.15;1.05;;;;;;;15.05;89.87;96544.69;5061709;28;20056;-78
2021/07/11 04:47:28;;;;;;;1.10;1.00;;;;;;;15.06;90.08;96548.94;5076230;28;20040;-77
2021/07/11 04:49:55;;;;;;;1.42;1.42;;;;;;;15.06;90.05;96548.94;5071952;28;20048;-75
2021/07/11 04:52:21;;;;;;;3.50;1.00;;;;;;;15.07;90.06;96550.53;5075537;28;20032;-75
2021/07/11 04:54:48;;;;;;;1.02;1.00;;;;;;;15.07;89.90;96550.53;5065150;28;20380;-77
2021/07/11 04:57:15;;;;;;;2.92;1.00;;;;;;;15.07;89.87;96542.59;5067923;28;20044;-75
2021/07/11 04:59:41;;;;;;;1.13;1.13;;;;;;;15.08;89.74;96543.41;5064562;28;20032;-76
2021/07/11 05:02:07;;;;;;;1.20;1.10;;;;;;;15.10;89.77;96549.22;5069891;28;20465;-75
2021/07/11 05:04:33;;;;;;;1.10;1.10;;;;;;;15.13;89.81;96549.53;5073379;28;20029;-75
2021/07/11 05:07:00;;;;;;;1.77;1.20;;;;;;;15.18;89.75;96557.56;5073545;28;20071;-75
2021/07/11 05:09:26;;;;;;;2.67;1.15;;;;;;;15.21;89.58;96559.69;5068480;28;20037;-75
2021/07/11 05:11:52;;;;;;;3.00;1.20;;;;;;;15.22;89.70;96563.94;5068244;28;20041;-75
2021/07/11 05:14:18;;;;;;;2.05;1.48;;;;;;;15.14;89.17;96567.00;5071320;28;20045;-75
2021/07/11 05:16:44;;;;;;;1.70;1.35;;;;;;;15.13;89.65;96564.59;5075796;28;20040;-75
2021/07/11 05:19:10;;;;;;;1.52;1.30;;;;;;;15.08;89.48;96567.97;5070328;28;20049;-77
2021/07/11 05:21:36;;;;;;;1.42;1.23;;;;;;;15.05;89.75;96573.72;5069276;28;20044;-75
2021/07/11 05:24:03;;;;;;;4.28;1.30;;;;;;;15.07;89.89;96574.28;5070612;28;20048;-75
2021/07/11 05:26:30;;;;;;;3.28;1.50;;;;;;;15.13;90.17;96575.16;5073500;28;20396;-75
2021/07/11 05:28:56;;;;;;;1.38;1.27;;;;;;;15.20;90.40;96575.78;5073471;28;20055;-75
2021/07/11 05:31:22;;;;;;;1.40;1.30;;;;;;;15.31;90.16;96579.38;5068626;28;20033;-75
2021/07/11 05:33:48;;;;;;;4.63;1.50;;;;;;;15.36;89.77;96582.09;5074973;28;20033;-74
2021/07/11 05:36:15;;;;;;;2.30;1.30;;;;;;;15.44;89.79;96579.03;5072828;28;20044;-76
2021/07/11 05:38:41;;;;;;;2.03;1.30;;;;;;;15.52;90.03;96573.31;5073278;28;20052;-75
2021/07/11 05:41:08;;;;;;;2.72;1.80;;;;;;;15.60;89.85;96575.53;5072682;28;20057;-76
2021/07/11 05:43:34;;;;;;;3.72;1.60;;;;;;;15.55;89.04;96572.00;5069885;28;20060;-75
2021/07/11 05:46:00;;;;;;;1.40;1.30;;;;;;;15.48;89.15;96566.91;5067438;28;20419;-75
2021/07/11 05:48:27;;;;;;;3.13;1.60;;;;;;;15.50;89.55;96575.41;5067626;28;20055;-75
2021/07/11 05:50:53;;;;;;;1.83;1.30;;;;;;;15.52;89.72;96578.59;5065449;28;20053;-76
2021/07/11 05:53:19;;;;;;;2.72;1.48;;;;;;;15.55;89.81;96577.28;5065487;28;20072;-78
2021/07/11 05:55:45;;;;;;;1.52;1.42;;;;;;;15.58;89.87;96566.22;5072937;28;20044;-77
2021/07/11 05:58:12;;;;;;;1.45;1.42;;;;;;;15.69;90.16;96575.09;5070797;28;20041;-74
2021/07/11 06:00:38;;;;;;;1.98;1.70;;;;;;;15.77;89.66;96578.13;5059053;28;20049;-75
2021/07/11 06:03:04;;;;;;;1.42;1.33;;;;;;;15.97;89.88;96576.75;5066496;28;20052;-76
2021/07/11 06:05:31;;;;;;;1.30;1.20;;;;;;;16.16;89.44;96570.03;5059954;28;20060;-74
2021/07/11 06:07:57;;;;;;;2.45;1.63;;;;;;;16.40;89.26;96577.69;5072119;28;20047;-78
2021/07/11 06:10:23;;;;;;;3.60;1.33;;;;;;;16.48;88.50;96573.75;5066284;28;20055;-75
2021/07/11 06:12:49;;;;;;;2.72;1.50;;;;;;;16.47;87.63;96574.81;5072802;28;20041;-75
2021/07/11 06:15:15;;;;;;;1.63;1.23;;;;;;;16.44;87.48;96574.28;5068720;28;20045;-74
2021/07/11 06:17:41;;;;;;;2.70;1.50;;;;;;;16.41;87.00;96576.63;5072393;28;20489;-76
2021/07/11 06:20:10;;;;;;;1.50;1.40;;;;;;;16.33;86.44;96579.72;5062945;28;20390;-75
2021/07/11 06:22:37;;;;;;;2.72;1.40;;;;;;;16.23;86.83;96583.88;5068393;28;20029;-76
2021/07/11 06:25:06;;;;;;;1.48;1.38;;;;;;;16.33;87.30;96577.88;5072605;28;20041;-76
2021/07/11 06:27:35;;;;;;;1.38;1.38;;;;;;;16.50;87.61;96576.97;5063208;28;20032;-75
2021/07/11 06:30:04;;;;;;;1.85;1.70;;;;;;;16.81;87.25;96575.38;5071606;28;20040;-78
2021/07/11 06:32:30;;;;;;;1.48;1.38;;;;;;;17.08;86.49;96575.28;5060657;28;20388;-76
2021/07/11 06:34:58;;;;;;;1.63;1.42;;;;;;;17.35;85.61;96583.13;5051546;28;20048;-76
2021/07/11 06:37:24;;;;;;;1.55;1.45;;;;;;;17.43;85.08;96580.00;5076841;28;20045;-76
2021/07/11 06:39:50;;;;;;;3.60;1.30;;;;;;;17.33;83.89;96579.16;5069836;28;20059;-76
2021/07/11 06:42:16;;;;;;;1.63;1.15;;;;;;;17.57;84.68;96577.66;5064984;28;20048;-76
2021/07/11 06:44:42;;;;;;;1.60;1.50;;;;;;;18.13;84.21;96569.09;5072385;28;20052;-77
2021/07/11 06:47:08;;;;;;;1.40;1.30;;;;;;;18.42;82.30;96563.28;5074599;28;20083;-77
2021/07/11 06:49:35;;;;;;;2.17;1.38;;;;;;;18.76;81.90;96563.53;5071557;28;20037;-77
2021/07/11 06:52:03;;;;;;;1.73;1.38;;;;;;;19.08;80.31;96567.00;5071263;28;20028;-76
2021/07/11 06:54:30;;;;;;;1.10;1.10;;;;;;;19.22;78.46;96565.38;5068492;28;20036;-76
2021/07/11 06:56:56;;;;;;;1.10;1.10;;;;;;;19.21;76.96;96571.72;5072798;28;20032;-76
2021/07/11 06:59:22;;;;;;;0.98;0.98;;;;;;;19.02;76.46;96576.81;5069754;28;20048;-77
2021/07/11 07:01:48;;;;;;;0.80;0.80;;;;;;;18.95;76.19;96569.13;5070447;28;20060;-76
2021/07/11 07:04:14;;;;;;;0.70;0.70;;;;;;;19.39;75.99;96573.03;5059382;28;20373;-76
2021/07/11 07:06:40;;;;;;;0.88;0.80;;;;;;;19.90;75.25;96580.81;5072283;28;20389;-76
2021/07/11 07:09:07;;;;;;;0.98;0.90;;;;;;;20.30;74.18;96573.66;5064636;28;20488;-76
2021/07/11 07:11:33;;;;;;;0.80;0.80;;;;;;;20.73;72.50;96570.44;5070576;28;20040;-76
2021/07/11 07:13:59;;;;;;;0.80;0.80;;;;;;;21.07;71.14;96573.84;5070461;28;20044;-76
2021/07/11 07:16:25;;;;;;;0.98;0.98;;;;;;;21.12;70.09;96581.00;5071021;28;20345;-75
2021/07/11 07:18:51;;;;;;;0.77;0.77;;;;;;;21.16;68.89;96579.34;5078568;28;20484;-75
2021/07/11 07:21:17;;;;;;;0.98;0.80;;;;;;;20.93;68.27;96590.78;5071711;28;20047;-75
2021/07/11 07:23:44;;;;;;;0.90;0.90;;;;;;;20.57;67.89;96580.41;5072514;28;20044;-75
2021/07/11 07:26:11;;;;;;;0.70;0.68;;;;;;;20.26;67.77;96577.94;5072983;28;20041;-75
2021/07/11 07:28:38;;;;;;;1.38;0.70;;;;;;;19.99;67.90;96578.38;5072135;28;20047;-75
2021/07/11 07:31:04;;;;;;;0.70;0.70;;;;;;;19.74;68.36;96582.78;5072987;28;20039;-74
2021/07/11 07:33:30;;;;;;;0.70;0.70;;;;;;;19.66;68.54;96580.66;5072987;28;20037;-75
2021/07/11 07:35:56;;;;;;;0.70;0.70;;;;;;;19.64;68.11;96588.88;5071958;28;20490;-75
2021/07/11 07:38:22;;;;;;;0.73;0.73;;;;;;;19.55;67.92;96581.72;5072894;28;20032;-75
2021/07/11 07:40:49;;;;;;;0.60;0.60;;;;;;;19.42;68.01;96589.25;5072833;28;20469;-76
2021/07/11 07:43:15;;;;;;;0.98;0.90;;;;;;;19.30;67.62;96593.25;5061489;28;20095;-75
2021/07/11 07:45:42;;;;;;;0.80;0.70;;;;;;;19.23;67.81;96586.38;5069160;28;20041;-76
2021/07/11 07:48:09;;;;;;;1.23;0.65;;;;;;;19.22;67.59;96584.75;5072753;28;20059;-75
2021/07/11 07:50:37;;;;;;;0.73;0.73;;;;;;;19.21;67.93;96591.16;5073263;28;20385;-74
2021/07/11 07:53:05;;;;;;;1.23;0.90;;;;;;;19.19;67.83;96592.47;5072680;28;20055;-75
2021/07/11 07:55:32;;;;;;;0.75;0.73;;;;;;;19.18;67.94;96591.69;5070828;28;20045;-75
2021/07/11 07:58:00;;;;;;;0.70;0.70;;;;;;;19.20;67.62;96591.41;5072013;28;20400;-75
2021/07/11 08:00:27;;;;;;;0.75;0.63;;;;;;;19.20;67.44;96594.88;5072708;28;20052;-75
2021/07/11 08:02:53;;;;;;;1.38;0.73;;;;;;;19.26;67.34;96590.34;5072725;28;20040;-74
2021/07/11 08:05:20;;;;;;;1.00;1.00;;;;;;;19.38;67.50;96595.34;5072028;28;20048;-74
2021/07/11 08:07:47;;;;;;;0.63;0.60;;;;;;;19.52;66.82;96585.75;5071340;28;20052;-75
2021/07/11 08:10:15;;;;;;;1.00;0.80;;;;;;;19.65;66.77;96595.81;5070381;28;20040;-75
2021/07/11 08:12:43;;;;;;;0.70;0.70;;;;;;;19.74;66.40;96592.59;5072667;28;20051;-75
2021/07/11 08:15:10;;;;;;;1.20;0.90;;;;;;;19.79;65.86;96593.38;5072004;28;20048;-75
2021/07/11 08:17:37;;;;;;;0.70;0.70;;;;;;;19.84;65.46;96588.06;5070219;28;20052;-74
2021/07/11 08:20:05;;;;;;;0.70;0.70;;;;;;;19.89;65.13;96602.41;5066703;28;20060;-76
2021/07/11 08:22:31;;;;;;;0.63;0.63;;;;;;;19.91;64.93;96589.59;5070460;28;20049;-75
2021/07/11 08:24:57;;;;;;;1.08;0.73;;;;;;;19.95;64.77;96588.78;5071170;28;20453;-74
2021/07/11 08:27:24;;;;;;;1.40;0.93;;;;;;;20.02;64.74;96593.81;5053828;28;20041;-76
2021/07/11 08:29:51;;;;;;;0.65;0.65;;;;;;;20.17;64.39;96599.03;5066829;28;20056;-75
2021/07/11 08:32:21;;;;;;;0.82;0.65;;;;;;;20.34;63.36;96592.53;5075980;28;20033;-76
2021/07/11 08:34:47;;;;;;;0.80;0.80;;;;;;;20.44;63.77;96587.94;5065726;28;20037;-75
2021/07/11 08:37:13;;;;;;;0.52;0.52;;;;;;;20.38;63.08;96588.25;5070426;28;20039;-75
2021/07/11 08:39:39;;;;;;;0.63;0.63;;;;;;;20.33;63.04;96590.97;5076039;28;20051;-75
2021/07/11 08:42:08;;;;;;;1.33;0.70;;;;;;;20.34;62.77;96595.22;5075484;28;20036;-75
2021/07/11 08:44:35;;;;;;;0.55;0.55;;;;;;;20.39;62.81;96595.16;5075457;28;20388;-75
2021/07/11 08:47:01;;;;;;;0.52;0.52;;;;;;;20.43;62.67;96597.03;5074152;28;20056;-75
2021/07/11 08:49:27;;;;;;;0.60;0.60;;;;;;;20.45;62.66;96607.38;5074643;28;20044;-78
2021/07/11 08:51:57;;;;;;;0.63;0.40;;;;;;;20.39;60.90;96598.66;5067839;28;20041;-75
2021/07/11 08:54:24;;;;;;;0.65;0.65;;;;;;;20.34;62.06;96598.66;5075488;28;20032;-75
2021/07/11 08:56:58;;;;;;;0.60;0.60;;;;;;;20.39;62.06;96605.81;5074140;28;20037;-74
2021/07/11 08:59:29;;;;;;;0.70;0.70;;;;;;;20.35;61.32;96605.59;5067922;28;20041;-74
2021/07/11 09:01:56;;;;;;;0.63;0.63;;;;;;;20.35;61.96;96607.44;5071764;28;20053;-74
2021/07/11 09:04:23;;;;;;;0.70;0.70;;;;;;;20.34;62.05;96605.88;5062779;28;20040;-74
2021/07/11 09:06:55;;;;;;;0.75;0.75;;;;;;;20.47;62.14;96600.72;5073185;28;20048;-75
2021/07/11 09:09:36;;;;;;;0.60;0.60;;;;;;;20.62;61.34;96601.69;5074642;28;20051;-74
2021/07/11 09:12:06;;;;;;;0.75;0.70;;;;;;;20.69;61.59;96602.19;5073476;28;20472;-74
2021/07/11 09:14:35;;;;;;;0.80;0.80;;;;;;;20.87;61.40;96603.34;5075221;28;20366;-75
2021/07/11 09:17:03;;;;;;;0.52;0.52;;;;;;;20.93;60.62;96598.78;5074124;28;20041;-75
2021/07/11 09:19:41;;;;;;;0.50;0.50;;;;;;;20.87;60.34;96596.16;5074419;28;20052;-74
2021/07/11 09:22:16;;;;;;;0.68;0.60;;;;;;;20.78;60.86;96600.50;5073930;28;20466;-74
2021/07/11 09:24:48;;;;;;;0.70;0.70;;;;;;;20.70;60.70;96600.31;5064134;28;20036;-75
2021/07/11 09:27:17;;;;;;;0.60;0.60;;;;;;;20.51;60.57;96605.47;5063783;28;20487;-74
2021/07/11 09:29:45;;;;;;;0.85;0.50;;;;;;;20.27;60.44;96601.63;5074528;28;20052;-74
2021/07/11 09:32:30;;;;;;;0.95;0.60;;;;;;;20.05;60.48;96604.72;5074910;28;20362;-74
2021/07/11 09:35:24;;;;;;;0.50;0.50;;;;;;;19.90;61.27;96614.63;5065060;28;20047;-74
2021/07/11 09:37:54;;;;;;;1.20;0.90;;;;;;;19.72;61.80;96611.50;5062969;28;20045;-74
2021/07/11 09:40:25;;;;;;;0.70;0.70;;;;;;;19.67;62.62;96619.47;5074800;28;20021;-74
2021/07/11 09:42:55;;;;;;;0.63;0.63;;;;;;;19.65;62.81;96617.09;5072859;28;20032;-74
2021/07/11 09:45:27;;;;;;;0.43;0.43;;;;;;;19.62;61.89;96611.50;5071364;28;20048;-76
2021/07/11 09:48:08;;;;;;;1.00;0.85;;;;;;;19.57;62.98;96620.31;5070178;28;20039;-74
2021/07/11 09:50:34;;;;;;;0.50;0.50;;;;;;;19.62;62.95;96619.50;5067477;28;20039;-75
2021/07/11 09:53:00;;;;;;;2.03;0.82;;;;;;;19.70;62.98;96626.09;5073704;28;20049;-74
2021/07/11 09:55:30;;;;;;;0.60;0.60;;;;;;;19.78;63.08;96629.06;5074342;28;20094;-74
2021/07/11 09:58:02;;;;;;;0.80;0.80;;;;;;;19.64;62.92;96614.72;5073327;28;20516;-76
2021/07/11 10:00:34;;;;;;;1.00;0.77;;;;;;;19.44;63.60;96615.56;5074065;28;20041;-74
2021/07/11 10:03:21;;;;;;;0.80;0.80;;;;;;;19.31;64.19;96627.56;5068825;28;20036;-74
2021/07/11 10:05:47;;;;;;;1.10;0.82;;;;;;;19.21;64.02;96617.75;5073984;28;20032;-74
2021/07/11 10:08:13;;;;;;;0.70;0.70;;;;;;;19.00;64.02;96624.13;5071725;28;20063;-75
2021/07/11 10:10:41;;;;;;;1.00;0.90;;;;;;;18.85;64.57;96631.03;5062069;28;20152;-75
2021/07/11 10:13:08;;;;;;;1.05;0.80;;;;;;;18.73;64.94;96635.81;5072987;28;20036;-75
2021/07/11 10:15:37;;;;;;;0.70;0.70;;;;;;;18.59;65.46;96632.09;5070756;28;20041;-75
2021/07/11 10:18:06;;;;;;;0.80;0.80;;;;;;;18.42;66.12;96635.78;5074322;28;20024;-74
2021/07/11 10:20:37;;;;;;;1.00;0.90;;;;;;;18.38;67.02;96640.03;5071654;28;20396;-74
2021/07/11 10:23:05;;;;;;;1.15;1.15;;;;;;;18.35;66.59;96637.09;5072206;28;20036;-73
2021/07/11 10:25:34;;;;;;;3.35;3.15;;;;;;;18.36;66.81;96636.84;5073560;28;20044;-73
2021/07/11 10:28:10;;;;;;;2.20;2.10;;;;;;;18.40;67.14;96637.91;5076472;28;20033;-73
2021/07/11 10:30:42;;;;;;;0.75;0.75;;;;;;;18.42;66.91;96632.34;5073932;28;20025;-73
2021/07/11 10:33:19;;;;;;;1.65;0.82;;;;;;;18.44;66.48;96632.88;5062291;28;20040;-73
2021/07/11 10:36:03;;;;;;;1.70;0.95;;;;;;;18.49;67.35;96632.06;5073929;28;20037;-73
2021/07/11 10:38:32;;;;;;;0.80;0.80;;;;;;;18.56;66.83;96632.59;5073568;28;20075;-73
2021/07/11 10:41:16;;;;;;;1.00;0.70;;;;;;;18.59;64.96;96618.81;5070716;28;20392;-75
2021/07/11 10:43:44;;;;;;;0.70;0.70;;;;;;;18.59;66.35;96629.44;5073758;28;20028;-73
2021/07/11 10:46:12;;;;;;;0.60;0.60;;;;;;;18.63;66.39;96633.16;5073306;28;20067;-73
2021/07/11 10:48:38;;;;;;;0.80;0.80;;;;;;;18.74;66.42;96632.09;5073014;28;20345;-73
2021/07/11 10:51:05;;;;;;;0.57;0.57;;;;;;;18.85;65.78;96624.94;5060930;28;20056;-73
2021/07/11 10:53:37;;;;;;;0.65;0.65;;;;;;;19.10;65.55;96612.72;5066429;28;20037;-73
2021/07/11 10:56:05;;;;;;;0.77;0.70;;;;;;;19.32;65.49;96615.03;5064839;28;20056;-73
2021/07/11 10:58:45;;;;;;;0.95;0.95;;;;;;;19.53;64.52;96619.25;5069428;28;20048;-73
2021/07/11 11:01:22;;;;;;;0.60;0.60;;;;;;;19.68;63.59;96618.41;5058644;28;20055;-73
2021/07/11 11:03:50;;;;;;;1.70;1.60;;;;;;;19.78;63.87;96621.06;5072589;28;20381;-73
2021/07/11 11:06:19;;;;;;;2.20;2.10;;;;;;;19.94;63.63;96613.81;5071045;28;20041;-73
2021/07/11 11:08:47;;;;;;;0.90;0.90;;;;;;;20.03;62.79;96608.69;5066836;28;20048;-75
2021/07/11 11:11:14;;;;;;;0.50;0.50;;;;;;;20.16;62.05;96604.63;5060956;28;20068;-73
2021/07/11 11:13:41;;;;;;;0.57;0.57;;;;;;;20.16;61.32;96605.44;5069467;28;20355;-73
2021/07/11 11:16:19;;;;;;;0.93;0.93;;;;;;;20.18;60.74;96602.50;5072721;28;20040;-74
2021/07/11 11:18:52;;;;;;;0.60;0.60;;;;;;;20.28;60.12;96603.25;5058550;28;20041;-73
2021/07/11 11:21:21;;;;;;;0.57;0.55;;;;;;;20.44;60.54;96603.94;5060142;28;20047;-73
2021/07/11 11:23:53;;;;;;;0.47;0.47;;;;;;;20.61;58.74;96590.25;5071762;28;20037;-73
2021/07/11 11:26:24;;;;;;;0.60;0.60;;;;;;;20.79;59.22;96583.44;5070973;28;20051;-76
2021/07/11 11:28:52;;;;;;;0.50;0.50;;;;;;;20.97;58.95;96586.47;5065289;28;20071;-74
2021/07/11 11:31:26;;;;;;;0.30;0.30;;;;;;;21.10;54.56;96543.16;5071641;28;20043;-74
2021/07/11 11:33:57;;;;;;;1.85;0.70;;;;;;;21.16;57.45;96568.69;5060144;28;20025;-74
2021/07/11 11:36:37;;;;;;;1.65;0.70;;;;;;;21.14;57.63;96568.16;5069479;28;20052;-75
2021/07/11 11:39:12;;;;;;;0.50;0.50;;;;;;;21.15;57.99;96569.78;5071416;28;20342;-74